»·PEaware :: N535DC KSAN-KSBA

N535DC :: KSAN-KSBA

FLIGHT INFORMATION

Flight Status: Arrived
Operator: Privately registered:
United States
More flights under this callsign
Pilot: Derrik C. (23013)
Aircraft: SOCATA TBM-900
(TBM9)
More flights by this aircraft type
Origin: KSAN San Diego Intl-Lindbergh
United States
Destination: KSBA Santa Barbara Mun
United States
More flights between these airports :: More routes between these airports
Route: +PEBLE6 V27 SXC V208 VTU VTU282 KWANG
File this flight plan on PilotEdge
Remarks:
Altitude:
(Current/Filed)
8,000ft
Speed:
(Current/Filed)
221kts
Departed: 29-Dec-19 03:13 PM
Arrived: 29-Dec-19 04:01 PM
Distance/Time
Traveled:
167nm/0:48
Distance/Time
To Go:
Arrived

Flight Plot

Page will automatically refresh every two minutes.

Flight plan parsing failed; only flown route is shown


Map Options




Map Legend


Flown Route
Filed Route
Departure Airport
Arrival Airport
Navaid (VOR, NDB)
Fix

Horizontal Profiles

Position Reports

Time Latitude Longitude Heading Altitude Ground
Speed
29-Dec-19 14:40 32.734972 -117.188206 195 16ft 0kts
29-Dec-19 14:41 32.734972 -117.188206 195 16ft 0kts
29-Dec-19 14:42 32.734972 -117.188206 195 16ft 0kts
29-Dec-19 14:43 32.734972 -117.188206 195 16ft 0kts
29-Dec-19 14:44 32.734972 -117.188206 195 16ft 0kts
29-Dec-19 14:45 32.734972 -117.188206 195 16ft 0kts
29-Dec-19 14:46 32.734972 -117.188206 195 16ft 0kts
29-Dec-19 14:47 32.734972 -117.188206 195 16ft 0kts
29-Dec-19 14:48 32.734972 -117.188206 195 16ft 0kts
29-Dec-19 14:49 32.734972 -117.188206 195 16ft 0kts
29-Dec-19 14:50 32.734972 -117.188206 195 16ft 0kts
29-Dec-19 14:51 32.734972 -117.188206 195 16ft 0kts
29-Dec-19 14:52 32.734972 -117.188206 195 16ft 0kts
29-Dec-19 14:53 32.734972 -117.188206 195 16ft 0kts
29-Dec-19 14:54 32.734972 -117.188206 195 16ft 0kts
29-Dec-19 14:55 32.734972 -117.188206 195 16ft 0kts
29-Dec-19 14:56 32.734972 -117.188206 195 16ft 0kts
29-Dec-19 14:57 32.734959 -117.188210 195 16ft 0kts
29-Dec-19 14:58 32.734959 -117.188210 195 16ft 0kts
29-Dec-19 14:59 32.734959 -117.188210 195 16ft 0kts
29-Dec-19 15:00 32.734959 -117.188210 195 16ft 0kts
29-Dec-19 15:01 32.734959 -117.188210 195 16ft 0kts
29-Dec-19 15:02 32.734959 -117.188210 195 16ft 0kts
29-Dec-19 15:03 32.734959 -117.188210 195 16ft 0kts
29-Dec-19 15:04 32.734959 -117.188210 195 16ft 0kts
29-Dec-19 15:05 32.734959 -117.188210 195 16ft 0kts
29-Dec-19 15:06 32.733884 -117.186278 106 16ft 15kts
29-Dec-19 15:07 32.732579 -117.180887 106 16ft 20kts
29-Dec-19 15:08 32.731219 -117.176618 198 17ft 0kts
29-Dec-19 15:09 32.731219 -117.176619 196 17ft 0kts
29-Dec-19 15:10 32.731219 -117.176619 196 17ft 0kts
29-Dec-19 15:11 32.730521 -117.177193 287 16ft 3kts
29-Dec-19 15:12 32.738431 -117.204952 296 1277ft 120kts
29-Dec-19 15:13 32.759867 -117.242615 301 3073ft 165kts
29-Dec-19 15:14 32.786346 -117.293477 300 4261ft 191kts
29-Dec-19 15:15 32.817721 -117.346502 306 5375ft 200kts
29-Dec-19 15:16 32.852361 -117.400249 307 6478ft 207kts
29-Dec-19 15:17 32.887356 -117.454561 307 7563ft 208kts
29-Dec-19 15:18 32.923870 -117.511343 307 7979ft 232kts
29-Dec-19 15:19 32.964226 -117.574205 307 7976ft 245kts
29-Dec-19 15:20 33.005549 -117.638677 306 7971ft 245kts
29-Dec-19 15:21 33.046279 -117.702318 305 7967ft 241kts
29-Dec-19 15:22 33.092972 -117.759202 316 7960ft 241kts
29-Dec-19 15:23 33.142198 -117.809260 315 7954ft 242kts
29-Dec-19 15:24 33.194531 -117.861358 328 7972ft 246kts
29-Dec-19 15:25 33.261857 -117.878868 343 7991ft 252kts
29-Dec-19 15:26 33.329383 -117.895655 343 7992ft 255kts
29-Dec-19 15:27 33.379420 -117.936584 268 8000ft 238kts
29-Dec-19 15:28 33.373827 -118.014223 263 8001ft 237kts
29-Dec-19 15:29 33.366431 -118.091870 263 8004ft 237kts
29-Dec-19 15:30 33.358909 -118.169278 263 7998ft 237kts
29-Dec-19 15:31 33.352230 -118.244700 273 7978ft 238kts
29-Dec-19 15:32 33.362004 -118.321270 283 7993ft 248kts
29-Dec-19 15:33 33.372670 -118.401594 283 7992ft 255kts
29-Dec-19 15:34 33.408790 -118.467851 313 7992ft 246kts
29-Dec-19 15:35 33.451445 -118.528565 313 7991ft 247kts
29-Dec-19 15:36 33.494902 -118.590524 313 7991ft 245kts
29-Dec-19 15:37 33.537115 -118.650844 312 7995ft 243kts
29-Dec-19 15:38 33.580427 -118.712836 312 8003ft 243kts
29-Dec-19 15:39 33.623807 -118.774498 305 8016ft 244kts
29-Dec-19 15:40 33.667158 -118.837216 306 8018ft 245kts
29-Dec-19 15:41 33.710793 -118.899993 306 8018ft 246kts
29-Dec-19 15:42 33.754795 -118.963389 306 8018ft 248kts
29-Dec-19 15:43 33.805425 -119.017165 350 8010ft 261kts
29-Dec-19 15:44 33.877491 -119.024587 351 8018ft 262kts
29-Dec-19 15:45 33.949870 -119.032154 351 8018ft 262kts
29-Dec-19 15:46 34.021528 -119.039671 351 8018ft 263kts
29-Dec-19 15:47 34.093154 -119.047195 351 8017ft 263kts
29-Dec-19 15:48 34.137282 -119.102810 294 8005ft 247kts
29-Dec-19 15:49 34.167852 -119.175312 294 7755ft 250kts
29-Dec-19 15:50 34.198101 -119.247569 294 6973ft 249kts
29-Dec-19 15:51 34.228934 -119.321394 294 6178ft 250kts
29-Dec-19 15:52 34.259032 -119.393627 294 5405ft 252kts
29-Dec-19 15:53 34.289806 -119.467644 294 4619ft 251kts
29-Dec-19 15:54 34.318537 -119.540353 292 3985ft 231kts
29-Dec-19 15:55 34.345227 -119.605964 302 3989ft 217kts
29-Dec-19 15:56 34.377996 -119.665720 293 3804ft 213kts
29-Dec-19 15:57 34.390768 -119.729387 282 3417ft 192kts
29-Dec-19 15:58 34.419085 -119.784945 288 1612ft 186kts
29-Dec-19 15:59 34.428103 -119.830302 266 263ft 98kts
29-Dec-19 16:00 34.428609 -119.841992 352 12ft 0kts
29-Dec-19 16:01 34.428662 -119.842002 351 12ft 5kts
29-Dec-19 16:03 34.430781 -119.839550 68 13ft 13kts
29-Dec-19 16:04 34.431789 -119.836296 56 13ft 10kts
29-Dec-19 16:05 34.432223 -119.835683 152 13ft 0kts
29-Dec-19 16:06 34.432223 -119.835683 152 13ft 0kts
29-Dec-19 16:07 34.432223 -119.835683 152 13ft 0kts
29-Dec-19 16:08 34.432223 -119.835683 152 13ft 0kts
29-Dec-19 16:09 34.432223 -119.835683 152 13ft 0kts
29-Dec-19 16:10 34.432223 -119.835683 152 13ft 0kts
29-Dec-19 16:11 34.432223 -119.835683 152 13ft 0kts
29-Dec-19 16:12 34.432223 -119.835683 152 13ft 0kts
29-Dec-19 16:13 34.432223 -119.835683 152 13ft 0kts
29-Dec-19 16:14 34.432223 -119.835683 152 13ft 0kts
29-Dec-19 16:15 34.432223 -119.835683 152 13ft 0kts
29-Dec-19 16:16 34.432223 -119.835683 152 13ft 0kts

Navigation Log

Ident Type
Flight plan parsing failed, navigation log unavailable